sensor_id;sensor_type;location;lat;lon;timestamp;P1;durP1;ratioP1;P2;durP2;ratioP2
15466;SDS011;7834;49.452;11.056;2023-05-20T00:00:50;4.70;;;3.70;;
15466;SDS011;7834;49.452;11.056;2023-05-20T00:03:17;5.20;;;3.83;;
15466;SDS011;7834;49.452;11.056;2023-05-20T00:05:44;4.90;;;3.90;;
15466;SDS011;7834;49.452;11.056;2023-05-20T00:08:10;5.30;;;3.80;;
15466;SDS011;7834;49.452;11.056;2023-05-20T00:10:36;5.22;;;4.10;;
15466;SDS011;7834;49.452;11.056;2023-05-20T00:13:02;4.10;;;3.70;;
15466;SDS011;7834;49.452;11.056;2023-05-20T00:15:29;4.30;;;3.90;;
15466;SDS011;7834;49.452;11.056;2023-05-20T00:17:55;4.70;;;4.20;;
15466;SDS011;7834;49.452;11.056;2023-05-20T00:20:21;4.00;;;3.60;;
15466;SDS011;7834;49.452;11.056;2023-05-20T00:22:47;5.80;;;4.10;;
15466;SDS011;7834;49.452;11.056;2023-05-20T00:25:13;5.40;;;3.90;;
15466;SDS011;7834;49.452;11.056;2023-05-20T00:27:40;5.00;;;4.03;;
15466;SDS011;7834;49.452;11.056;2023-05-20T00:30:06;4.18;;;3.78;;
15466;SDS011;7834;49.452;11.056;2023-05-20T00:32:32;4.50;;;4.10;;
15466;SDS011;7834;49.452;11.056;2023-05-20T00:34:59;4.53;;;4.10;;
15466;SDS011;7834;49.452;11.056;2023-05-20T00:37:25;4.43;;;4.03;;
15466;SDS011;7834;49.452;11.056;2023-05-20T00:39:51;5.05;;;4.13;;
15466;SDS011;7834;49.452;11.056;2023-05-20T00:42:21;4.60;;;4.05;;
15466;SDS011;7834;49.452;11.056;2023-05-20T00:44:47;4.70;;;4.20;;
15466;SDS011;7834;49.452;11.056;2023-05-20T00:47:13;5.22;;;4.47;;
15466;SDS011;7834;49.452;11.056;2023-05-20T00:49:40;5.03;;;4.47;;
15466;SDS011;7834;49.452;11.056;2023-05-20T00:52:06;4.95;;;4.45;;
15466;SDS011;7834;49.452;11.056;2023-05-20T00:54:32;5.50;;;4.35;;
15466;SDS011;7834;49.452;11.056;2023-05-20T00:56:59;5.82;;;4.40;;
15466;SDS011;7834;49.452;11.056;2023-05-20T00:59:26;4.75;;;4.32;;
15466;SDS011;7834;49.452;11.056;2023-05-20T01:01:53;4.97;;;4.47;;
15466;SDS011;7834;49.452;11.056;2023-05-20T01:04:19;5.57;;;4.32;;
15466;SDS011;7834;49.452;11.056;2023-05-20T01:06:45;5.20;;;4.50;;
15466;SDS011;7834;49.452;11.056;2023-05-20T01:09:12;5.18;;;4.68;;
15466;SDS011;7834;49.452;11.056;2023-05-20T01:11:41;5.13;;;4.22;;
15466;SDS011;7834;49.452;11.056;2023-05-20T01:14:09;4.93;;;4.35;;
15466;SDS011;7834;49.452;11.056;2023-05-20T01:16:37;5.70;;;4.70;;
15466;SDS011;7834;49.452;11.056;2023-05-20T01:19:04;5.25;;;4.78;;
15466;SDS011;7834;49.452;11.056;2023-05-20T01:21:33;4.95;;;4.20;;
15466;SDS011;7834;49.452;11.056;2023-05-20T01:24:00;5.25;;;4.57;;
15466;SDS011;7834;49.452;11.056;2023-05-20T01:26:29;7.10;;;4.80;;
15466;SDS011;7834;49.452;11.056;2023-05-20T01:28:57;6.00;;;4.70;;
15466;SDS011;7834;49.452;11.056;2023-05-20T01:31:28;5.15;;;4.65;;
15466;SDS011;7834;49.452;11.056;2023-05-20T01:33:56;5.10;;;4.60;;
15466;SDS011;7834;49.452;11.056;2023-05-20T01:36:23;5.30;;;4.80;;
15466;SDS011;7834;49.452;11.056;2023-05-20T01:38:51;5.82;;;4.85;;
15466;SDS011;7834;49.452;11.056;2023-05-20T01:41:18;6.50;;;4.63;;
15466;SDS011;7834;49.452;11.056;2023-05-20T01:43:44;6.00;;;5.00;;
15466;SDS011;7834;49.452;11.056;2023-05-20T01:46:11;6.15;;;4.65;;
15466;SDS011;7834;49.452;11.056;2023-05-20T01:48:37;5.43;;;4.57;;
15466;SDS011;7834;49.452;11.056;2023-05-20T01:51:03;5.13;;;4.63;;
15466;SDS011;7834;49.452;11.056;2023-05-20T01:53:29;5.50;;;5.00;;
15466;SDS011;7834;49.452;11.056;2023-05-20T01:55:55;5.05;;;4.55;;
15466;SDS011;7834;49.452;11.056;2023-05-20T01:58:21;5.60;;;5.03;;
15466;SDS011;7834;49.452;11.056;2023-05-20T02:00:47;5.55;;;4.90;;
15466;SDS011;7834;49.452;11.056;2023-05-20T02:03:13;5.73;;;5.20;;
15466;SDS011;7834;49.452;11.056;2023-05-20T02:05:39;5.35;;;4.90;;
15466;SDS011;7834;49.452;11.056;2023-05-20T02:08:05;5.50;;;4.97;;
15466;SDS011;7834;49.452;11.056;2023-05-20T02:10:31;6.25;;;5.10;;
15466;SDS011;7834;49.452;11.056;2023-05-20T02:12:57;5.95;;;5.35;;
15466;SDS011;7834;49.452;11.056;2023-05-20T02:15:23;6.32;;;5.65;;
15466;SDS011;7834;49.452;11.056;2023-05-20T02:17:49;5.60;;;5.00;;
15466;SDS011;7834;49.452;11.056;2023-05-20T02:20:16;5.65;;;5.10;;
15466;SDS011;7834;49.452;11.056;2023-05-20T02:22:42;5.50;;;5.00;;
15466;SDS011;7834;49.452;11.056;2023-05-20T02:25:08;6.00;;;5.40;;
15466;SDS011;7834;49.452;11.056;2023-05-20T02:27:34;5.97;;;5.20;;
15466;SDS011;7834;49.452;11.056;2023-05-20T02:30:00;18.63;;;14.60;;
15466;SDS011;7834;49.452;11.056;2023-05-20T02:32:26;6.13;;;5.50;;
15466;SDS011;7834;49.452;11.056;2023-05-20T02:34:53;6.10;;;5.60;;
15466;SDS011;7834;49.452;11.056;2023-05-20T02:37:19;6.05;;;5.43;;
15466;SDS011;7834;49.452;11.056;2023-05-20T02:39:45;6.60;;;5.70;;
15466;SDS011;7834;49.452;11.056;2023-05-20T02:42:11;6.68;;;5.72;;
15466;SDS011;7834;49.452;11.056;2023-05-20T02:44:37;6.18;;;5.57;;
15466;SDS011;7834;49.452;11.056;2023-05-20T02:47:03;5.95;;;5.40;;
15466;SDS011;7834;49.452;11.056;2023-05-20T02:49:30;6.07;;;5.47;;
15466;SDS011;7834;49.452;11.056;2023-05-20T02:51:56;6.30;;;5.70;;
15466;SDS011;7834;49.452;11.056;2023-05-20T02:54:22;6.63;;;5.83;;
15466;SDS011;7834;49.452;11.056;2023-05-20T02:56:48;6.03;;;5.50;;
15466;SDS011;7834;49.452;11.056;2023-05-20T02:59:14;6.95;;;5.80;;
15466;SDS011;7834;49.452;11.056;2023-05-20T03:01:40;6.28;;;5.68;;
15466;SDS011;7834;49.452;11.056;2023-05-20T03:04:06;6.50;;;5.60;;
15466;SDS011;7834;49.452;11.056;2023-05-20T03:06:32;6.95;;;6.25;;
15466;SDS011;7834;49.452;11.056;2023-05-20T03:08:58;6.93;;;6.15;;
15466;SDS011;7834;49.452;11.056;2023-05-20T03:11:25;7.10;;;6.13;;
15466;SDS011;7834;49.452;11.056;2023-05-20T03:13:51;8.20;;;6.32;;
15466;SDS011;7834;49.452;11.056;2023-05-20T03:16:17;6.57;;;5.87;;
15466;SDS011;7834;49.452;11.056;2023-05-20T03:18:43;7.03;;;6.40;;
15466;SDS011;7834;49.452;11.056;2023-05-20T03:21:10;6.75;;;6.05;;
15466;SDS011;7834;49.452;11.056;2023-05-20T03:23:36;7.00;;;6.30;;
15466;SDS011;7834;49.452;11.056;2023-05-20T03:26:02;6.90;;;5.80;;
15466;SDS011;7834;49.452;11.056;2023-05-20T03:28:28;7.05;;;6.38;;
15466;SDS011;7834;49.452;11.056;2023-05-20T03:30:54;6.43;;;5.78;;
15466;SDS011;7834;49.452;11.056;2023-05-20T03:33:20;6.60;;;6.00;;
15466;SDS011;7834;49.452;11.056;2023-05-20T03:35:50;6.65;;;5.95;;
15466;SDS011;7834;49.452;11.056;2023-05-20T03:38:16;6.78;;;5.82;;
15466;SDS011;7834;49.452;11.056;2023-05-20T03:40:42;6.63;;;5.97;;
15466;SDS011;7834;49.452;11.056;2023-05-20T03:43:08;6.60;;;5.85;;
15466;SDS011;7834;49.452;11.056;2023-05-20T03:45:34;7.95;;;6.10;;
15466;SDS011;7834;49.452;11.056;2023-05-20T03:48:00;6.82;;;6.20;;
15466;SDS011;7834;49.452;11.056;2023-05-20T03:50:27;6.68;;;5.97;;
15466;SDS011;7834;49.452;11.056;2023-05-20T03:52:55;7.10;;;6.40;;
15466;SDS011;7834;49.452;11.056;2023-05-20T03:55:21;7.00;;;6.30;;
15466;SDS011;7834;49.452;11.056;2023-05-20T03:57:47;9.47;;;8.53;;
15466;SDS011;7834;49.452;11.056;2023-05-20T04:00:15;7.00;;;6.30;;
15466;SDS011;7834;49.452;11.056;2023-05-20T04:02:42;7.30;;;6.60;;
15466;SDS011;7834;49.452;11.056;2023-05-20T04:05:08;7.18;;;6.47;;
15466;SDS011;7834;49.452;11.056;2023-05-20T04:07:34;6.88;;;6.22;;
15466;SDS011;7834;49.452;11.056;2023-05-20T04:10:01;6.90;;;6.20;;
15466;SDS011;7834;49.452;11.056;2023-05-20T04:12:27;9.68;;;6.88;;
15466;SDS011;7834;49.452;11.056;2023-05-20T04:14:58;7.78;;;6.85;;
15466;SDS011;7834;49.452;11.056;2023-05-20T04:17:28;9.98;;;6.72;;
15466;SDS011;7834;49.452;11.056;2023-05-20T04:19:54;7.45;;;6.75;;
15466;SDS011;7834;49.452;11.056;2023-05-20T04:22:21;7.78;;;7.00;;
15466;SDS011;7834;49.452;11.056;2023-05-20T04:24:48;7.70;;;6.90;;
15466;SDS011;7834;49.452;11.056;2023-05-20T04:27:14;7.68;;;6.90;;
15466;SDS011;7834;49.452;11.056;2023-05-20T04:29:41;9.20;;;7.35;;
15466;SDS011;7834;49.452;11.056;2023-05-20T04:32:11;7.93;;;7.13;;
15466;SDS011;7834;49.452;11.056;2023-05-20T04:34:37;8.85;;;7.38;;
15466;SDS011;7834;49.452;11.056;2023-05-20T04:37:03;7.88;;;7.07;;
15466;SDS011;7834;49.452;11.056;2023-05-20T04:39:31;8.30;;;7.50;;
15466;SDS011;7834;49.452;11.056;2023-05-20T04:41:57;8.00;;;7.03;;
15466;SDS011;7834;49.452;11.056;2023-05-20T04:44:23;8.52;;;7.63;;
15466;SDS011;7834;49.452;11.056;2023-05-20T04:46:50;7.95;;;7.22;;
15466;SDS011;7834;49.452;11.056;2023-05-20T04:49:17;8.10;;;7.30;;
15466;SDS011;7834;49.452;11.056;2023-05-20T04:51:43;9.15;;;7.43;;
15466;SDS011;7834;49.452;11.056;2023-05-20T04:54:11;8.00;;;7.30;;
15466;SDS011;7834;49.452;11.056;2023-05-20T04:56:37;7.93;;;7.13;;
15466;SDS011;7834;49.452;11.056;2023-05-20T04:59:04;8.48;;;7.40;;
15466;SDS011;7834;49.452;11.056;2023-05-20T05:01:30;8.37;;;7.57;;
15466;SDS011;7834;49.452;11.056;2023-05-20T05:03:56;7.90;;;7.20;;
15466;SDS011;7834;49.452;11.056;2023-05-20T05:06:22;8.10;;;7.30;;
15466;SDS011;7834;49.452;11.056;2023-05-20T05:08:48;8.48;;;7.65;;
15466;SDS011;7834;49.452;11.056;2023-05-20T05:11:14;8.80;;;7.40;;
15466;SDS011;7834;49.452;11.056;2023-05-20T05:13:40;8.77;;;7.88;;
15466;SDS011;7834;49.452;11.056;2023-05-20T05:16:06;8.43;;;7.63;;
15466;SDS011;7834;49.452;11.056;2023-05-20T05:18:32;8.73;;;7.82;;
15466;SDS011;7834;49.452;11.056;2023-05-20T05:20:59;8.63;;;7.90;;
15466;SDS011;7834;49.452;11.056;2023-05-20T05:23:25;8.90;;;8.00;;
15466;SDS011;7834;49.452;11.056;2023-05-20T05:25:52;8.70;;;7.90;;
15466;SDS011;7834;49.452;11.056;2023-05-20T05:28:18;8.35;;;7.55;;
15466;SDS011;7834;49.452;11.056;2023-05-20T05:30:44;8.75;;;7.88;;
15466;SDS011;7834;49.452;11.056;2023-05-20T05:33:10;8.98;;;7.95;;
15466;SDS011;7834;49.452;11.056;2023-05-20T05:35:37;9.23;;;8.43;;
15466;SDS011;7834;49.452;11.056;2023-05-20T05:38:03;9.88;;;8.30;;
15466;SDS011;7834;49.452;11.056;2023-05-20T05:40:29;8.80;;;7.90;;
15466;SDS011;7834;49.452;11.056;2023-05-20T05:42:55;11.20;;;8.30;;
15466;SDS011;7834;49.452;11.056;2023-05-20T05:45:21;10.75;;;8.00;;
15466;SDS011;7834;49.452;11.056;2023-05-20T05:47:47;8.73;;;7.90;;
15466;SDS011;7834;49.452;11.056;2023-05-20T05:50:13;9.60;;;8.70;;
15466;SDS011;7834;49.452;11.056;2023-05-20T05:52:40;9.93;;;8.75;;
15466;SDS011;7834;49.452;11.056;2023-05-20T05:55:06;9.57;;;8.57;;
15466;SDS011;7834;49.452;11.056;2023-05-20T05:57:32;8.70;;;7.90;;
15466;SDS011;7834;49.452;11.056;2023-05-20T05:59:58;8.65;;;7.82;;
15466;SDS011;7834;49.452;11.056;2023-05-20T06:02:25;9.25;;;8.35;;
15466;SDS011;7834;49.452;11.056;2023-05-20T06:04:51;8.85;;;7.95;;
15466;SDS011;7834;49.452;11.056;2023-05-20T06:07:17;8.60;;;7.80;;
15466;SDS011;7834;49.452;11.056;2023-05-20T06:09:43;9.02;;;8.15;;
15466;SDS011;7834;49.452;11.056;2023-05-20T06:12:09;9.00;;;8.13;;
15466;SDS011;7834;49.452;11.056;2023-05-20T06:14:35;8.55;;;7.65;;
15466;SDS011;7834;49.452;11.056;2023-05-20T06:17:02;9.05;;;8.15;;
15466;SDS011;7834;49.452;11.056;2023-05-20T06:19:31;9.27;;;8.15;;
15466;SDS011;7834;49.452;11.056;2023-05-20T06:21:57;9.57;;;8.70;;
15466;SDS011;7834;49.452;11.056;2023-05-20T06:24:23;9.27;;;8.37;;
15466;SDS011;7834;49.452;11.056;2023-05-20T06:26:49;9.57;;;8.55;;
15466;SDS011;7834;49.452;11.056;2023-05-20T06:32:07;8.90;;;8.00;;
15466;SDS011;7834;49.452;11.056;2023-05-20T06:34:33;8.82;;;7.70;;
15466;SDS011;7834;49.452;11.056;2023-05-20T06:36:59;9.23;;;8.05;;
15466;SDS011;7834;49.452;11.056;2023-05-20T06:39:25;9.80;;;7.93;;
15466;SDS011;7834;49.452;11.056;2023-05-20T06:41:51;8.55;;;7.70;;
15466;SDS011;7834;49.452;11.056;2023-05-20T06:44:17;9.02;;;8.15;;
15466;SDS011;7834;49.452;11.056;2023-05-20T06:46:43;8.45;;;7.65;;
15466;SDS011;7834;49.452;11.056;2023-05-20T06:49:09;8.38;;;7.60;;
15466;SDS011;7834;49.452;11.056;2023-05-20T06:51:35;10.82;;;7.88;;
15466;SDS011;7834;49.452;11.056;2023-05-20T06:54:01;8.70;;;7.90;;
15466;SDS011;7834;49.452;11.056;2023-05-20T06:56:28;8.75;;;7.90;;
15466;SDS011;7834;49.452;11.056;2023-05-20T06:58:54;8.88;;;8.07;;
15466;SDS011;7834;49.452;11.056;2023-05-20T07:01:20;8.88;;;8.05;;
15466;SDS011;7834;49.452;11.056;2023-05-20T07:03:46;8.38;;;7.65;;
15466;SDS011;7834;49.452;11.056;2023-05-20T07:06:12;7.87;;;7.17;;
15466;SDS011;7834;49.452;11.056;2023-05-20T07:08:38;10.88;;;7.90;;
15466;SDS011;7834;49.452;11.056;2023-05-20T07:11:04;9.40;;;8.43;;
15466;SDS011;7834;49.452;11.056;2023-05-20T07:13:30;8.90;;;8.02;;
15466;SDS011;7834;49.452;11.056;2023-05-20T07:15:56;8.93;;;8.10;;
15466;SDS011;7834;49.452;11.056;2023-05-20T07:18:22;8.57;;;7.60;;
15466;SDS011;7834;49.452;11.056;2023-05-20T07:20:49;9.20;;;7.82;;
15466;SDS011;7834;49.452;11.056;2023-05-20T07:23:15;8.60;;;7.70;;
15466;SDS011;7834;49.452;11.056;2023-05-20T07:25:41;9.25;;;8.10;;
15466;SDS011;7834;49.452;11.056;2023-05-20T07:28:07;9.00;;;8.10;;
15466;SDS011;7834;49.452;11.056;2023-05-20T07:30:33;8.70;;;7.80;;
15466;SDS011;7834;49.452;11.056;2023-05-20T07:32:59;8.43;;;7.63;;
15466;SDS011;7834;49.452;11.056;2023-05-20T07:35:25;8.88;;;7.78;;
15466;SDS011;7834;49.452;11.056;2023-05-20T07:37:51;9.07;;;8.07;;
15466;SDS011;7834;49.452;11.056;2023-05-20T07:40:17;8.18;;;7.47;;
15466;SDS011;7834;49.452;11.056;2023-05-20T07:42:43;8.48;;;7.68;;
15466;SDS011;7834;49.452;11.056;2023-05-20T07:45:09;8.43;;;7.63;;
15466;SDS011;7834;49.452;11.056;2023-05-20T07:47:35;10.10;;;8.70;;
15466;SDS011;7834;49.452;11.056;2023-05-20T07:50:01;8.73;;;7.82;;
15466;SDS011;7834;49.452;11.056;2023-05-20T07:52:27;8.73;;;7.83;;
15466;SDS011;7834;49.452;11.056;2023-05-20T07:54:53;8.82;;;7.93;;
15466;SDS011;7834;49.452;11.056;2023-05-20T07:57:19;8.75;;;7.95;;
15466;SDS011;7834;49.452;11.056;2023-05-20T07:59:45;9.43;;;8.45;;
15466;SDS011;7834;49.452;11.056;2023-05-20T08:02:11;10.40;;;8.05;;
15466;SDS011;7834;49.452;11.056;2023-05-20T08:04:37;8.73;;;7.90;;
15466;SDS011;7834;49.452;11.056;2023-05-20T08:07:03;9.70;;;8.07;;
15466;SDS011;7834;49.452;11.056;2023-05-20T08:09:30;8.57;;;7.80;;
15466;SDS011;7834;49.452;11.056;2023-05-20T08:11:56;9.25;;;7.97;;
15466;SDS011;7834;49.452;11.056;2023-05-20T08:14:22;8.88;;;7.97;;
15466;SDS011;7834;49.452;11.056;2023-05-20T08:16:48;9.43;;;8.02;;
15466;SDS011;7834;49.452;11.056;2023-05-20T08:19:14;9.38;;;8.02;;
15466;SDS011;7834;49.452;11.056;2023-05-20T08:21:40;9.57;;;8.57;;
15466;SDS011;7834;49.452;11.056;2023-05-20T08:24:06;8.65;;;7.85;;
15466;SDS011;7834;49.452;11.056;2023-05-20T08:26:32;8.98;;;8.05;;
15466;SDS011;7834;49.452;11.056;2023-05-20T08:28:58;9.68;;;7.70;;
15466;SDS011;7834;49.452;11.056;2023-05-20T08:31:25;8.32;;;7.53;;
15466;SDS011;7834;49.452;11.056;2023-05-20T08:33:51;8.20;;;7.33;;
15466;SDS011;7834;49.452;11.056;2023-05-20T08:36:18;8.75;;;7.95;;
15466;SDS011;7834;49.452;11.056;2023-05-20T08:38:44;9.25;;;7.80;;
15466;SDS011;7834;49.452;11.056;2023-05-20T08:41:10;8.27;;;7.30;;
15466;SDS011;7834;49.452;11.056;2023-05-20T08:43:36;8.30;;;7.50;;
15466;SDS011;7834;49.452;11.056;2023-05-20T08:46:02;8.57;;;7.68;;
15466;SDS011;7834;49.452;11.056;2023-05-20T08:48:30;8.37;;;7.57;;
15466;SDS011;7834;49.452;11.056;2023-05-20T08:50:56;8.05;;;7.35;;
15466;SDS011;7834;49.452;11.056;2023-05-20T08:53:23;8.23;;;7.43;;
15466;SDS011;7834;49.452;11.056;2023-05-20T08:55:56;10.43;;;9.10;;
15466;SDS011;7834;49.452;11.056;2023-05-20T08:58:26;8.90;;;8.00;;
15466;SDS011;7834;49.452;11.056;2023-05-20T09:00:52;8.35;;;7.55;;
15466;SDS011;7834;49.452;11.056;2023-05-20T09:03:18;9.27;;;8.27;;
15466;SDS011;7834;49.452;11.056;2023-05-20T09:05:45;7.97;;;7.20;;
15466;SDS011;7834;49.452;11.056;2023-05-20T09:08:11;8.02;;;7.25;;
15466;SDS011;7834;49.452;11.056;2023-05-20T09:10:38;8.60;;;7.80;;
15466;SDS011;7834;49.452;11.056;2023-05-20T09:13:04;8.00;;;7.20;;
15466;SDS011;7834;49.452;11.056;2023-05-20T09:15:31;9.73;;;7.50;;
15466;SDS011;7834;49.452;11.056;2023-05-20T09:18:04;7.90;;;7.20;;
15466;SDS011;7834;49.452;11.056;2023-05-20T09:20:32;8.00;;;7.20;;
15466;SDS011;7834;49.452;11.056;2023-05-20T09:22:59;9.52;;;7.88;;
15466;SDS011;7834;49.452;11.056;2023-05-20T09:25:26;8.27;;;7.55;;
15466;SDS011;7834;49.452;11.056;2023-05-20T09:27:52;8.35;;;7.55;;
15466;SDS011;7834;49.452;11.056;2023-05-20T09:30:19;7.90;;;7.20;;
15466;SDS011;7834;49.452;11.056;2023-05-20T09:32:51;8.65;;;7.75;;
15466;SDS011;7834;49.452;11.056;2023-05-20T09:35:18;8.45;;;7.65;;
15466;SDS011;7834;49.452;11.056;2023-05-20T09:37:44;8.63;;;7.63;;
15466;SDS011;7834;49.452;11.056;2023-05-20T09:40:11;8.52;;;7.63;;
15466;SDS011;7834;49.452;11.056;2023-05-20T09:42:41;8.55;;;7.75;;
15466;SDS011;7834;49.452;11.056;2023-05-20T09:45:07;8.27;;;7.57;;
15466;SDS011;7834;49.452;11.056;2023-05-20T09:47:33;7.93;;;7.22;;
15466;SDS011;7834;49.452;11.056;2023-05-20T09:50:01;9.03;;;8.17;;
15466;SDS011;7834;49.452;11.056;2023-05-20T09:52:27;8.40;;;7.60;;
15466;SDS011;7834;49.452;11.056;2023-05-20T09:54:53;8.25;;;7.38;;
15466;SDS011;7834;49.452;11.056;2023-05-20T09:57:20;8.27;;;7.28;;
15466;SDS011;7834;49.452;11.056;2023-05-20T09:59:46;8.18;;;7.47;;
15466;SDS011;7834;49.452;11.056;2023-05-20T10:02:12;8.20;;;7.40;;
15466;SDS011;7834;49.452;11.056;2023-05-20T10:04:41;8.10;;;7.37;;
15466;SDS011;7834;49.452;11.056;2023-05-20T10:15:16;8.60;;;7.80;;
15466;SDS011;7834;49.452;11.056;2023-05-20T10:20:09;8.65;;;7.75;;
15466;SDS011;7834;49.452;11.056;2023-05-20T10:22:38;8.57;;;7.70;;
15466;SDS011;7834;49.452;11.056;2023-05-20T10:25:05;8.10;;;7.40;;
15466;SDS011;7834;49.452;11.056;2023-05-20T10:27:42;8.55;;;7.78;;
15466;SDS011;7834;49.452;11.056;2023-05-20T10:30:16;9.35;;;8.38;;
15466;SDS011;7834;49.452;11.056;2023-05-20T10:32:53;9.30;;;8.40;;
15466;SDS011;7834;49.452;11.056;2023-05-20T10:35:24;9.30;;;8.50;;
15466;SDS011;7834;49.452;11.056;2023-05-20T10:37:51;9.13;;;8.27;;
15466;SDS011;7834;49.452;11.056;2023-05-20T10:40:19;8.85;;;7.95;;
15466;SDS011;7834;49.452;11.056;2023-05-20T10:42:45;8.18;;;7.38;;
15466;SDS011;7834;49.452;11.056;2023-05-20T10:45:22;7.60;;;7.00;;
15466;SDS011;7834;49.452;11.056;2023-05-20T10:47:56;9.82;;;8.85;;
15466;SDS011;7834;49.452;11.056;2023-05-20T10:50:26;9.10;;;8.20;;
15466;SDS011;7834;49.452;11.056;2023-05-20T10:52:53;10.73;;;9.48;;
15466;SDS011;7834;49.452;11.056;2023-05-20T10:55:20;9.23;;;8.43;;
15466;SDS011;7834;49.452;11.056;2023-05-20T10:57:46;9.85;;;8.85;;
15466;SDS011;7834;49.452;11.056;2023-05-20T11:00:13;8.35;;;7.63;;
15466;SDS011;7834;49.452;11.056;2023-05-20T11:02:40;8.43;;;7.72;;
15466;SDS011;7834;49.452;11.056;2023-05-20T11:05:08;9.88;;;8.90;;
15466;SDS011;7834;49.452;11.056;2023-05-20T11:07:36;10.93;;;9.25;;
15466;SDS011;7834;49.452;11.056;2023-05-20T11:10:06;9.18;;;8.25;;
15466;SDS011;7834;49.452;11.056;2023-05-20T11:12:32;8.98;;;8.00;;
15466;SDS011;7834;49.452;11.056;2023-05-20T11:14:58;8.97;;;8.23;;
15466;SDS011;7834;49.452;11.056;2023-05-20T11:17:26;8.43;;;7.68;;
15466;SDS011;7834;49.452;11.056;2023-05-20T11:19:52;8.90;;;8.10;;
15466;SDS011;7834;49.452;11.056;2023-05-20T11:22:18;9.60;;;8.20;;
15466;SDS011;7834;49.452;11.056;2023-05-20T11:24:45;9.00;;;8.07;;
15466;SDS011;7834;49.452;11.056;2023-05-20T11:27:11;8.93;;;8.17;;
15466;SDS011;7834;49.452;11.056;2023-05-20T11:29:37;9.25;;;8.38;;
15466;SDS011;7834;49.452;11.056;2023-05-20T11:32:04;8.65;;;7.95;;
15466;SDS011;7834;49.452;11.056;2023-05-20T11:34:35;9.10;;;8.30;;
15466;SDS011;7834;49.452;11.056;2023-05-20T11:37:01;8.40;;;7.68;;
15466;SDS011;7834;49.452;11.056;2023-05-20T11:39:31;9.75;;;8.75;;
15466;SDS011;7834;49.452;11.056;2023-05-20T11:41:58;9.45;;;8.50;;
15466;SDS011;7834;49.452;11.056;2023-05-20T11:44:24;9.48;;;8.48;;
15466;SDS011;7834;49.452;11.056;2023-05-20T11:46:50;23.93;;;20.47;;
15466;SDS011;7834;49.452;11.056;2023-05-20T11:49:16;8.80;;;8.00;;
15466;SDS011;7834;49.452;11.056;2023-05-20T11:51:42;9.15;;;8.30;;
15466;SDS011;7834;49.452;11.056;2023-05-20T11:54:09;9.40;;;8.50;;
15466;SDS011;7834;49.452;11.056;2023-05-20T11:56:36;9.40;;;8.50;;
15466;SDS011;7834;49.452;11.056;2023-05-20T11:59:03;9.82;;;8.95;;
15466;SDS011;7834;49.452;11.056;2023-05-20T12:01:34;8.82;;;8.10;;
15466;SDS011;7834;49.452;11.056;2023-05-20T12:04:10;8.93;;;8.13;;
15466;SDS011;7834;49.452;11.056;2023-05-20T12:06:40;15.88;;;12.98;;
15466;SDS011;7834;49.452;11.056;2023-05-20T12:09:09;8.82;;;7.93;;
15466;SDS011;7834;49.452;11.056;2023-05-20T12:11:36;9.70;;;8.80;;
15466;SDS011;7834;49.452;11.056;2023-05-20T12:14:04;9.35;;;8.25;;
15466;SDS011;7834;49.452;11.056;2023-05-20T12:16:32;9.68;;;8.77;;
15466;SDS011;7834;49.452;11.056;2023-05-20T12:18:58;10.15;;;9.13;;
15466;SDS011;7834;49.452;11.056;2023-05-20T12:21:25;9.82;;;8.90;;
15466;SDS011;7834;49.452;11.056;2023-05-20T12:23:51;9.97;;;9.07;;
15466;SDS011;7834;49.452;11.056;2023-05-20T12:26:22;9.27;;;8.45;;
15466;SDS011;7834;49.452;11.056;2023-05-20T12:28:48;9.98;;;9.07;;
15466;SDS011;7834;49.452;11.056;2023-05-20T12:31:14;15.20;;;8.52;;
15466;SDS011;7834;49.452;11.056;2023-05-20T12:33:40;9.65;;;8.65;;
15466;SDS011;7834;49.452;11.056;2023-05-20T12:36:06;15.05;;;13.55;;
15466;SDS011;7834;49.452;11.056;2023-05-20T12:38:32;9.98;;;8.98;;
15466;SDS011;7834;49.452;11.056;2023-05-20T12:40:58;10.68;;;8.65;;
15466;SDS011;7834;49.452;11.056;2023-05-20T12:43:26;9.95;;;8.90;;
15466;SDS011;7834;49.452;11.056;2023-05-20T12:45:52;9.80;;;8.90;;
15466;SDS011;7834;49.452;11.056;2023-05-20T12:48:18;9.45;;;8.63;;
15466;SDS011;7834;49.452;11.056;2023-05-20T12:50:46;9.38;;;8.57;;
15466;SDS011;7834;49.452;11.056;2023-05-20T12:53:12;9.85;;;8.65;;
15466;SDS011;7834;49.452;11.056;2023-05-20T12:55:38;9.27;;;8.48;;
15466;SDS011;7834;49.452;11.056;2023-05-20T12:58:05;9.55;;;8.65;;
15466;SDS011;7834;49.452;11.056;2023-05-20T13:00:33;10.17;;;9.27;;
15466;SDS011;7834;49.452;11.056;2023-05-20T13:02:59;10.02;;;9.23;;
15466;SDS011;7834;49.452;11.056;2023-05-20T13:05:25;10.60;;;9.50;;
15466;SDS011;7834;49.452;11.056;2023-05-20T13:07:51;10.15;;;9.23;;
15466;SDS011;7834;49.452;11.056;2023-05-20T13:10:17;10.57;;;9.18;;
15466;SDS011;7834;49.452;11.056;2023-05-20T13:12:43;10.17;;;9.17;;
15466;SDS011;7834;49.452;11.056;2023-05-20T13:15:13;9.65;;;8.80;;
15466;SDS011;7834;49.452;11.056;2023-05-20T13:17:39;9.48;;;8.57;;
15466;SDS011;7834;49.452;11.056;2023-05-20T13:20:06;9.75;;;8.95;;
15466;SDS011;7834;49.452;11.056;2023-05-20T13:22:33;10.05;;;8.90;;
15466;SDS011;7834;49.452;11.056;2023-05-20T13:24:59;9.50;;;8.60;;
15466;SDS011;7834;49.452;11.056;2023-05-20T13:27:25;10.48;;;9.48;;
15466;SDS011;7834;49.452;11.056;2023-05-20T13:29:52;10.05;;;9.05;;
15466;SDS011;7834;49.452;11.056;2023-05-20T13:32:18;9.55;;;8.65;;
15466;SDS011;7834;49.452;11.056;2023-05-20T13:34:44;9.85;;;9.02;;
15466;SDS011;7834;49.452;11.056;2023-05-20T13:37:10;9.40;;;8.60;;
15466;SDS011;7834;49.452;11.056;2023-05-20T13:39:36;9.93;;;8.60;;
15466;SDS011;7834;49.452;11.056;2023-05-20T13:42:02;9.57;;;8.45;;
15466;SDS011;7834;49.452;11.056;2023-05-20T13:44:28;9.57;;;8.68;;
15466;SDS011;7834;49.452;11.056;2023-05-20T13:46:54;9.73;;;8.82;;
15466;SDS011;7834;49.452;11.056;2023-05-20T13:49:20;9.70;;;8.80;;
15466;SDS011;7834;49.452;11.056;2023-05-20T13:51:47;9.30;;;8.35;;
15466;SDS011;7834;49.452;11.056;2023-05-20T13:54:13;9.10;;;8.30;;
15466;SDS011;7834;49.452;11.056;2023-05-20T13:56:39;10.18;;;8.38;;
15466;SDS011;7834;49.452;11.056;2023-05-20T13:59:05;8.88;;;8.07;;
15466;SDS011;7834;49.452;11.056;2023-05-20T14:01:34;9.43;;;8.52;;
15466;SDS011;7834;49.452;11.056;2023-05-20T14:04:08;8.45;;;7.65;;
15466;SDS011;7834;49.452;11.056;2023-05-20T14:06:34;8.80;;;8.00;;
15466;SDS011;7834;49.452;11.056;2023-05-20T14:09:01;8.73;;;7.93;;
15466;SDS011;7834;49.452;11.056;2023-05-20T14:11:27;8.63;;;7.80;;
15466;SDS011;7834;49.452;11.056;2023-05-20T14:13:53;12.27;;;11.13;;
15466;SDS011;7834;49.452;11.056;2023-05-20T14:16:19;8.93;;;8.07;;
15466;SDS011;7834;49.452;11.056;2023-05-20T14:18:45;9.30;;;8.40;;
15466;SDS011;7834;49.452;11.056;2023-05-20T14:21:11;8.95;;;8.20;;
15466;SDS011;7834;49.452;11.056;2023-05-20T14:23:38;8.98;;;8.07;;
15466;SDS011;7834;49.452;11.056;2023-05-20T14:26:04;9.55;;;8.60;;
15466;SDS011;7834;49.452;11.056;2023-05-20T14:28:31;9.33;;;8.00;;
15466;SDS011;7834;49.452;11.056;2023-05-20T14:30:57;8.32;;;7.63;;
15466;SDS011;7834;49.452;11.056;2023-05-20T14:33:23;8.70;;;7.80;;
15466;SDS011;7834;49.452;11.056;2023-05-20T14:35:49;8.88;;;7.97;;
15466;SDS011;7834;49.452;11.056;2023-05-20T14:38:15;8.77;;;8.00;;
15466;SDS011;7834;49.452;11.056;2023-05-20T14:40:42;8.95;;;7.40;;
15466;SDS011;7834;49.452;11.056;2023-05-20T14:43:08;8.40;;;7.70;;
15466;SDS011;7834;49.452;11.056;2023-05-20T14:45:34;8.48;;;7.68;;
15466;SDS011;7834;49.452;11.056;2023-05-20T14:48:00;7.93;;;7.23;;
15466;SDS011;7834;49.452;11.056;2023-05-20T14:50:26;8.30;;;7.60;;
15466;SDS011;7834;49.452;11.056;2023-05-20T14:52:52;8.10;;;7.37;;
15466;SDS011;7834;49.452;11.056;2023-05-20T14:55:18;8.57;;;7.43;;